Chongqing, China
Current Conditions -  °F | °C
As of 5:00 AM on Friday 24 Oct 2014 (Local Time) from ZUCK Reporting Station
Haze Haze  
Wind Chill: 59°   Ceiling: Unl
Heat Index: 59°   Visibility: 1.6mi
Dew Point: 57°   Wind: 4mph
Humidity: 94%   Direction: 20°NNE
Pressure: 30.03"   Gusts: NA
Location:  29.57°N, 106.58°E
Report Text: ZUCK 232100Z 02002MPS 2700 BR NSC 15/14 Q1017 NOSIG
Loading
Personal Weather Stations






























Interactive Weather Map
Tropical Storm Tracking
New forecast layout! Learn more

10-Day Weather Forecast

Advertisements
Track Severe Weather on mobile